Impacts TAF Board INFO
FOR SITUATIONAL AWARENESS. NOT TO BE USED FOR FLIGHT PLANNING PURPOSES.
IDs:

KDHN - Dothan Rgnl, AL, US

Issued at 1731 UTC 23 May 2018
Updated at 2236 UTC 23 May 2018
Potential Impact None Slight Moderate High
Time<<24/11Z 24/12Z 24/13Z 24/14Z 24/15Z 24/16Z 24/17Z 24/18Z 24/19Z 24/20Z 24/21Z 24/22Z 24/23Z>>
Type PRVL PRVL PRVL PRVL PRVL PRVL PRVL
VIS 3 3 3 >6 >6 >6 >6
CIG 8 8 8 25 25 25 25
Cover OVC OVC OVC BKN BKN BKN BKN
FltCat IFR IFR IFR MVFR MVFR MVFR MVFR
WX BR BR BR VCFG VCFG VCFG VCFG
WDir VRB VRB VRB 250 250 250 250
WSpd 5 5 5 8 8 8 8
WGst -- -- -- -- -- -- --

Raw TAF
KDHN 231731Z 2318/2418 VRB06KT 6SM SHRA VCTS BKN035CB
  TEMPO 2318/2320 27010G20KT 2SM +TSRA BKN020 OVC030CB
  FM240000 21005KT 6SM -SHRA BKN030
  FM240600 VRB05KT 3SM BR BKN008 OVC030
  FM241400 25008KT P6SM VCFG SCT008 BKN025


METAR Board
Radar Display
Forecast Discussion

FOR SITUATIONAL AWARENESS. NOT TO BE USED FOR FLIGHT PLANNING PURPOSES.